sensor_id;sensor_type;location;lat;lon;timestamp;P1;durP1;ratioP1;P2;durP2;ratioP2
2972;SDS011;1496;51.404;7.232;2023-01-09T00:00:50;2.40;;;1.67;;
2972;SDS011;1496;51.404;7.232;2023-01-09T00:03:18;4.20;;;1.97;;
2972;SDS011;1496;51.404;7.232;2023-01-09T00:05:45;2.30;;;1.27;;
2972;SDS011;1496;51.404;7.232;2023-01-09T00:08:12;2.87;;;1.37;;
2972;SDS011;1496;51.404;7.232;2023-01-09T00:10:38;1.47;;;1.20;;
2972;SDS011;1496;51.404;7.232;2023-01-09T00:13:04;1.97;;;1.20;;
2972;SDS011;1496;51.404;7.232;2023-01-09T00:15:31;2.63;;;1.33;;
2972;SDS011;1496;51.404;7.232;2023-01-09T00:17:58;1.57;;;1.17;;
2972;SDS011;1496;51.404;7.232;2023-01-09T00:20:26;1.53;;;0.80;;
2972;SDS011;1496;51.404;7.232;2023-01-09T00:22:52;2.03;;;1.20;;
2972;SDS011;1496;51.404;7.232;2023-01-09T00:25:19;1.20;;;1.10;;
2972;SDS011;1496;51.404;7.232;2023-01-09T00:27:46;2.47;;;1.33;;
2972;SDS011;1496;51.404;7.232;2023-01-09T00:30:14;1.30;;;0.80;;
2972;SDS011;1496;51.404;7.232;2023-01-09T00:32:42;1.80;;;0.90;;
2972;SDS011;1496;51.404;7.232;2023-01-09T00:35:10;1.60;;;1.20;;
2972;SDS011;1496;51.404;7.232;2023-01-09T00:37:40;2.90;;;0.90;;
2972;SDS011;1496;51.404;7.232;2023-01-09T00:40:07;1.30;;;0.97;;
2972;SDS011;1496;51.404;7.232;2023-01-09T00:42:34;4.87;;;1.10;;
2972;SDS011;1496;51.404;7.232;2023-01-09T00:45:03;2.67;;;1.40;;
2972;SDS011;1496;51.404;7.232;2023-01-09T00:47:40;2.60;;;1.40;;
2972;SDS011;1496;51.404;7.232;2023-01-09T00:50:12;2.23;;;1.03;;
2972;SDS011;1496;51.404;7.232;2023-01-09T00:52:54;1.80;;;0.97;;
2972;SDS011;1496;51.404;7.232;2023-01-09T00:55:22;2.30;;;0.93;;
2972;SDS011;1496;51.404;7.232;2023-01-09T00:57:48;1.00;;;0.70;;
2972;SDS011;1496;51.404;7.232;2023-01-09T01:00:16;3.17;;;1.07;;
2972;SDS011;1496;51.404;7.232;2023-01-09T01:02:42;2.37;;;0.90;;
2972;SDS011;1496;51.404;7.232;2023-01-09T01:05:10;2.17;;;0.80;;
2972;SDS011;1496;51.404;7.232;2023-01-09T01:07:55;1.87;;;0.70;;
2972;SDS011;1496;51.404;7.232;2023-01-09T01:10:22;1.30;;;0.87;;
2972;SDS011;1496;51.404;7.232;2023-01-09T01:12:50;2.77;;;1.10;;
2972;SDS011;1496;51.404;7.232;2023-01-09T01:15:18;1.60;;;1.00;;
2972;SDS011;1496;51.404;7.232;2023-01-09T01:17:46;1.40;;;0.90;;
2972;SDS011;1496;51.404;7.232;2023-01-09T01:20:14;1.57;;;1.17;;
2972;SDS011;1496;51.404;7.232;2023-01-09T01:22:42;1.10;;;0.90;;
2972;SDS011;1496;51.404;7.232;2023-01-09T01:25:10;1.30;;;1.00;;
2972;SDS011;1496;51.404;7.232;2023-01-09T01:27:38;1.57;;;1.17;;
2972;SDS011;1496;51.404;7.232;2023-01-09T01:30:05;1.23;;;0.90;;
2972;SDS011;1496;51.404;7.232;2023-01-09T01:32:35;1.93;;;0.77;;
2972;SDS011;1496;51.404;7.232;2023-01-09T01:35:01;2.90;;;0.90;;
2972;SDS011;1496;51.404;7.232;2023-01-09T01:37:28;1.90;;;0.90;;
2972;SDS011;1496;51.404;7.232;2023-01-09T01:39:55;2.30;;;0.93;;
2972;SDS011;1496;51.404;7.232;2023-01-09T01:42:22;1.97;;;0.73;;
2972;SDS011;1496;51.404;7.232;2023-01-09T01:47:32;0.90;;;0.50;;
2972;SDS011;1496;51.404;7.232;2023-01-09T01:50:08;2.90;;;1.10;;
2972;SDS011;1496;51.404;7.232;2023-01-09T01:52:52;1.00;;;0.60;;
2972;SDS011;1496;51.404;7.232;2023-01-09T01:55:44;1.13;;;0.70;;
2972;SDS011;1496;51.404;7.232;2023-01-09T01:58:18;1.10;;;0.70;;
2972;SDS011;1496;51.404;7.232;2023-01-09T02:00:45;1.33;;;0.93;;
2972;SDS011;1496;51.404;7.232;2023-01-09T02:03:16;1.13;;;0.90;;
2972;SDS011;1496;51.404;7.232;2023-01-09T02:05:45;1.47;;;0.70;;
2972;SDS011;1496;51.404;7.232;2023-01-09T02:08:11;1.10;;;0.80;;
2972;SDS011;1496;51.404;7.232;2023-01-09T02:10:39;1.80;;;0.90;;
2972;SDS011;1496;51.404;7.232;2023-01-09T02:13:06;1.10;;;0.70;;
2972;SDS011;1496;51.404;7.232;2023-01-09T02:15:58;1.00;;;0.67;;
2972;SDS011;1496;51.404;7.232;2023-01-09T02:18:36;1.20;;;0.77;;
2972;SDS011;1496;51.404;7.232;2023-01-09T02:21:30;1.03;;;0.80;;
2972;SDS011;1496;51.404;7.232;2023-01-09T02:24:32;1.00;;;0.60;;
2972;SDS011;1496;51.404;7.232;2023-01-09T02:27:31;1.30;;;0.80;;
2972;SDS011;1496;51.404;7.232;2023-01-09T02:30:30;1.03;;;0.70;;
2972;SDS011;1496;51.404;7.232;2023-01-09T02:35:59;1.50;;;0.70;;
2972;SDS011;1496;51.404;7.232;2023-01-09T02:41:25;1.20;;;0.60;;
2972;SDS011;1496;51.404;7.232;2023-01-09T02:44:10;2.07;;;0.80;;
2972;SDS011;1496;51.404;7.232;2023-01-09T02:46:41;3.40;;;0.83;;
2972;SDS011;1496;51.404;7.232;2023-01-09T02:49:08;3.20;;;0.90;;
2972;SDS011;1496;51.404;7.232;2023-01-09T03:00:19;2.17;;;1.00;;
2972;SDS011;1496;51.404;7.232;2023-01-09T03:02:52;1.70;;;1.00;;
2972;SDS011;1496;51.404;7.232;2023-01-09T03:05:24;1.97;;;1.10;;
2972;SDS011;1496;51.404;7.232;2023-01-09T03:08:10;2.53;;;1.23;;
2972;SDS011;1496;51.404;7.232;2023-01-09T03:13:45;1.30;;;1.00;;
2972;SDS011;1496;51.404;7.232;2023-01-09T03:16:23;2.97;;;1.20;;
2972;SDS011;1496;51.404;7.232;2023-01-09T03:18:56;2.23;;;1.30;;
2972;SDS011;1496;51.404;7.232;2023-01-09T03:21:25;3.20;;;1.80;;
2972;SDS011;1496;51.404;7.232;2023-01-09T03:23:56;1.87;;;1.30;;
2972;SDS011;1496;51.404;7.232;2023-01-09T03:26:25;9.53;;;2.27;;
2972;SDS011;1496;51.404;7.232;2023-01-09T03:28:57;5.63;;;2.00;;
2972;SDS011;1496;51.404;7.232;2023-01-09T03:31:25;4.23;;;2.30;;
2972;SDS011;1496;51.404;7.232;2023-01-09T03:33:51;4.13;;;2.77;;
2972;SDS011;1496;51.404;7.232;2023-01-09T03:36:18;2.27;;;2.07;;
2972;SDS011;1496;51.404;7.232;2023-01-09T03:38:46;2.27;;;2.07;;
2972;SDS011;1496;51.404;7.232;2023-01-09T03:41:14;2.83;;;2.23;;
2972;SDS011;1496;51.404;7.232;2023-01-09T03:43:41;6.60;;;2.40;;
2972;SDS011;1496;51.404;7.232;2023-01-09T03:46:08;5.40;;;2.03;;
2972;SDS011;1496;51.404;7.232;2023-01-09T03:48:35;3.87;;;2.33;;
2972;SDS011;1496;51.404;7.232;2023-01-09T03:51:01;4.60;;;2.47;;
2972;SDS011;1496;51.404;7.232;2023-01-09T03:53:28;4.80;;;1.97;;
2972;SDS011;1496;51.404;7.232;2023-01-09T03:55:55;7.10;;;2.33;;
2972;SDS011;1496;51.404;7.232;2023-01-09T03:58:23;4.73;;;2.10;;
2972;SDS011;1496;51.404;7.232;2023-01-09T04:00:51;4.60;;;2.43;;
2972;SDS011;1496;51.404;7.232;2023-01-09T04:03:23;6.37;;;1.87;;
2972;SDS011;1496;51.404;7.232;2023-01-09T04:05:51;3.33;;;1.60;;
2972;SDS011;1496;51.404;7.232;2023-01-09T04:08:18;4.50;;;2.00;;
2972;SDS011;1496;51.404;7.232;2023-01-09T04:10:47;3.00;;;1.73;;
2972;SDS011;1496;51.404;7.232;2023-01-09T04:13:15;4.93;;;2.00;;
2972;SDS011;1496;51.404;7.232;2023-01-09T04:15:41;3.50;;;1.77;;
2972;SDS011;1496;51.404;7.232;2023-01-09T04:18:08;3.80;;;1.90;;
2972;SDS011;1496;51.404;7.232;2023-01-09T04:20:37;4.63;;;1.80;;
2972;SDS011;1496;51.404;7.232;2023-01-09T04:23:03;5.53;;;1.90;;
2972;SDS011;1496;51.404;7.232;2023-01-09T04:25:30;2.50;;;1.23;;
2972;SDS011;1496;51.404;7.232;2023-01-09T04:27:57;3.13;;;1.50;;
2972;SDS011;1496;51.404;7.232;2023-01-09T04:30:23;4.13;;;2.63;;
2972;SDS011;1496;51.404;7.232;2023-01-09T04:32:51;3.30;;;1.70;;
2972;SDS011;1496;51.404;7.232;2023-01-09T04:35:17;6.33;;;1.90;;
2972;SDS011;1496;51.404;7.232;2023-01-09T04:37:44;4.20;;;1.60;;
2972;SDS011;1496;51.404;7.232;2023-01-09T04:40:11;3.17;;;1.63;;
2972;SDS011;1496;51.404;7.232;2023-01-09T04:42:39;3.67;;;2.10;;
2972;SDS011;1496;51.404;7.232;2023-01-09T04:45:06;11.23;;;1.90;;
2972;SDS011;1496;51.404;7.232;2023-01-09T04:47:36;2.13;;;1.77;;
2972;SDS011;1496;51.404;7.232;2023-01-09T04:53:51;5.53;;;2.37;;
2972;SDS011;1496;51.404;7.232;2023-01-09T04:56:18;4.70;;;1.90;;
2972;SDS011;1496;51.404;7.232;2023-01-09T04:58:44;2.60;;;1.93;;
2972;SDS011;1496;51.404;7.232;2023-01-09T05:01:11;2.83;;;1.93;;
2972;SDS011;1496;51.404;7.232;2023-01-09T05:03:40;6.00;;;1.80;;
2972;SDS011;1496;51.404;7.232;2023-01-09T05:06:06;3.60;;;1.50;;
2972;SDS011;1496;51.404;7.232;2023-01-09T05:08:33;6.10;;;1.77;;
2972;SDS011;1496;51.404;7.232;2023-01-09T05:11:00;8.30;;;2.20;;
2972;SDS011;1496;51.404;7.232;2023-01-09T05:13:26;1.83;;;1.30;;
2972;SDS011;1496;51.404;7.232;2023-01-09T05:15:54;10.37;;;2.13;;
2972;SDS011;1496;51.404;7.232;2023-01-09T05:18:21;4.90;;;1.50;;
2972;SDS011;1496;51.404;7.232;2023-01-09T05:20:47;3.47;;;1.37;;
2972;SDS011;1496;51.404;7.232;2023-01-09T05:23:13;6.27;;;1.47;;
2972;SDS011;1496;51.404;7.232;2023-01-09T05:25:41;8.43;;;1.90;;
2972;SDS011;1496;51.404;7.232;2023-01-09T05:28:07;3.43;;;1.37;;
2972;SDS011;1496;51.404;7.232;2023-01-09T05:30:34;4.73;;;1.90;;
2972;SDS011;1496;51.404;7.232;2023-01-09T05:33:00;5.40;;;1.60;;
2972;SDS011;1496;51.404;7.232;2023-01-09T05:35:30;6.97;;;1.70;;
2972;SDS011;1496;51.404;7.232;2023-01-09T05:37:57;10.53;;;1.77;;
2972;SDS011;1496;51.404;7.232;2023-01-09T05:40:23;2.97;;;1.53;;
2972;SDS011;1496;51.404;7.232;2023-01-09T05:42:50;4.10;;;1.40;;
2972;SDS011;1496;51.404;7.232;2023-01-09T05:45:17;4.93;;;1.80;;
2972;SDS011;1496;51.404;7.232;2023-01-09T05:47:44;3.40;;;1.10;;
2972;SDS011;1496;51.404;7.232;2023-01-09T05:50:11;7.97;;;1.77;;
2972;SDS011;1496;51.404;7.232;2023-01-09T05:52:39;5.37;;;1.33;;
2972;SDS011;1496;51.404;7.232;2023-01-09T05:55:06;5.40;;;1.30;;
2972;SDS011;1496;51.404;7.232;2023-01-09T05:57:36;2.30;;;1.33;;
2972;SDS011;1496;51.404;7.232;2023-01-09T06:00:03;5.90;;;1.43;;
2972;SDS011;1496;51.404;7.232;2023-01-09T06:02:32;5.73;;;1.30;;
2972;SDS011;1496;51.404;7.232;2023-01-09T06:05:00;9.67;;;1.80;;
2972;SDS011;1496;51.404;7.232;2023-01-09T06:07:27;3.37;;;1.37;;
2972;SDS011;1496;51.404;7.232;2023-01-09T06:09:55;4.03;;;0.90;;
2972;SDS011;1496;51.404;7.232;2023-01-09T06:12:22;5.80;;;1.30;;
2972;SDS011;1496;51.404;7.232;2023-01-09T06:14:48;2.43;;;1.27;;
2972;SDS011;1496;51.404;7.232;2023-01-09T06:17:14;6.40;;;2.00;;
2972;SDS011;1496;51.404;7.232;2023-01-09T06:19:41;3.73;;;1.20;;
2972;SDS011;1496;51.404;7.232;2023-01-09T06:22:07;5.40;;;1.80;;
2972;SDS011;1496;51.404;7.232;2023-01-09T06:24:34;6.70;;;1.30;;
2972;SDS011;1496;51.404;7.232;2023-01-09T06:27:01;3.20;;;1.10;;
2972;SDS011;1496;51.404;7.232;2023-01-09T06:29:31;2.33;;;1.00;;
2972;SDS011;1496;51.404;7.232;2023-01-09T06:31:58;5.40;;;1.10;;
2972;SDS011;1496;51.404;7.232;2023-01-09T06:34:24;6.50;;;1.43;;
2972;SDS011;1496;51.404;7.232;2023-01-09T06:36:52;3.33;;;1.50;;
2972;SDS011;1496;51.404;7.232;2023-01-09T06:39:18;10.57;;;1.50;;
2972;SDS011;1496;51.404;7.232;2023-01-09T06:41:45;6.37;;;1.50;;
2972;SDS011;1496;51.404;7.232;2023-01-09T06:44:11;6.47;;;1.53;;
2972;SDS011;1496;51.404;7.232;2023-01-09T06:46:38;5.60;;;1.53;;
2972;SDS011;1496;51.404;7.232;2023-01-09T06:49:05;3.37;;;1.37;;
2972;SDS011;1496;51.404;7.232;2023-01-09T06:51:33;5.67;;;1.57;;
2972;SDS011;1496;51.404;7.232;2023-01-09T06:53:59;3.40;;;1.13;;
2972;SDS011;1496;51.404;7.232;2023-01-09T06:56:27;6.70;;;1.60;;
2972;SDS011;1496;51.404;7.232;2023-01-09T06:58:53;5.17;;;1.80;;
2972;SDS011;1496;51.404;7.232;2023-01-09T07:01:20;5.17;;;1.30;;
2972;SDS011;1496;51.404;7.232;2023-01-09T07:03:47;6.47;;;1.40;;
2972;SDS011;1496;51.404;7.232;2023-01-09T07:06:14;3.27;;;1.20;;
2972;SDS011;1496;51.404;7.232;2023-01-09T07:08:42;4.40;;;1.90;;
2972;SDS011;1496;51.404;7.232;2023-01-09T07:11:09;2.33;;;1.20;;
2972;SDS011;1496;51.404;7.232;2023-01-09T07:13:35;3.23;;;1.40;;
2972;SDS011;1496;51.404;7.232;2023-01-09T07:16:02;6.10;;;1.70;;
2972;SDS011;1496;51.404;7.232;2023-01-09T07:18:30;7.03;;;1.67;;
2972;SDS011;1496;51.404;7.232;2023-01-09T07:20:57;6.20;;;1.50;;
2972;SDS011;1496;51.404;7.232;2023-01-09T07:23:24;4.60;;;2.20;;
2972;SDS011;1496;51.404;7.232;2023-01-09T07:25:52;9.80;;;2.17;;
2972;SDS011;1496;51.404;7.232;2023-01-09T07:28:19;4.63;;;1.80;;
2972;SDS011;1496;51.404;7.232;2023-01-09T07:30:45;12.07;;;1.70;;
2972;SDS011;1496;51.404;7.232;2023-01-09T07:33:12;3.73;;;1.60;;
2972;SDS011;1496;51.404;7.232;2023-01-09T07:35:38;2.47;;;1.10;;
2972;SDS011;1496;51.404;7.232;2023-01-09T07:38:08;3.60;;;1.20;;
2972;SDS011;1496;51.404;7.232;2023-01-09T07:40:36;4.70;;;1.50;;
2972;SDS011;1496;51.404;7.232;2023-01-09T07:43:03;4.03;;;1.40;;
2972;SDS011;1496;51.404;7.232;2023-01-09T07:45:30;11.07;;;1.60;;
2972;SDS011;1496;51.404;7.232;2023-01-09T07:47:56;4.03;;;1.43;;
2972;SDS011;1496;51.404;7.232;2023-01-09T07:50:23;3.53;;;1.73;;
2972;SDS011;1496;51.404;7.232;2023-01-09T07:52:51;3.13;;;1.30;;
2972;SDS011;1496;51.404;7.232;2023-01-09T07:55:17;7.47;;;1.77;;
2972;SDS011;1496;51.404;7.232;2023-01-09T07:57:50;3.93;;;1.00;;
2972;SDS011;1496;51.404;7.232;2023-01-09T08:00:17;2.77;;;1.20;;
2972;SDS011;1496;51.404;7.232;2023-01-09T08:02:45;3.77;;;1.50;;
2972;SDS011;1496;51.404;7.232;2023-01-09T08:05:18;6.30;;;1.10;;
2972;SDS011;1496;51.404;7.232;2023-01-09T08:07:46;6.50;;;1.20;;
2972;SDS011;1496;51.404;7.232;2023-01-09T08:10:15;2.50;;;0.90;;
2972;SDS011;1496;51.404;7.232;2023-01-09T08:12:46;3.37;;;1.40;;
2972;SDS011;1496;51.404;7.232;2023-01-09T08:15:13;8.20;;;1.30;;
2972;SDS011;1496;51.404;7.232;2023-01-09T08:17:41;3.83;;;1.10;;
2972;SDS011;1496;51.404;7.232;2023-01-09T08:20:12;3.33;;;1.07;;
2972;SDS011;1496;51.404;7.232;2023-01-09T08:22:40;6.73;;;1.60;;
2972;SDS011;1496;51.404;7.232;2023-01-09T08:25:08;7.17;;;1.17;;
2972;SDS011;1496;51.404;7.232;2023-01-09T08:27:35;1.97;;;1.20;;
2972;SDS011;1496;51.404;7.232;2023-01-09T08:30:02;4.47;;;1.50;;
2972;SDS011;1496;51.404;7.232;2023-01-09T08:32:29;6.03;;;1.57;;
2972;SDS011;1496;51.404;7.232;2023-01-09T08:34:57;5.47;;;2.87;;
2972;SDS011;1496;51.404;7.232;2023-01-09T08:37:25;3.40;;;1.53;;
2972;SDS011;1496;51.404;7.232;2023-01-09T08:39:52;11.73;;;1.77;;
2972;SDS011;1496;51.404;7.232;2023-01-09T08:42:19;5.77;;;1.63;;
2972;SDS011;1496;51.404;7.232;2023-01-09T08:45:04;6.60;;;1.40;;
2972;SDS011;1496;51.404;7.232;2023-01-09T08:47:50;8.80;;;2.03;;
2972;SDS011;1496;51.404;7.232;2023-01-09T08:50:16;3.17;;;1.20;;
2972;SDS011;1496;51.404;7.232;2023-01-09T08:52:44;7.50;;;1.47;;
2972;SDS011;1496;51.404;7.232;2023-01-09T08:55:11;9.97;;;1.80;;
2972;SDS011;1496;51.404;7.232;2023-01-09T08:57:50;4.70;;;1.73;;
2972;SDS011;1496;51.404;7.232;2023-01-09T09:00:18;5.10;;;1.40;;
2972;SDS011;1496;51.404;7.232;2023-01-09T09:02:53;2.03;;;1.27;;
2972;SDS011;1496;51.404;7.232;2023-01-09T09:05:22;5.97;;;1.50;;
2972;SDS011;1496;51.404;7.232;2023-01-09T09:07:51;8.40;;;1.50;;
2972;SDS011;1496;51.404;7.232;2023-01-09T09:10:24;3.40;;;1.90;;
2972;SDS011;1496;51.404;7.232;2023-01-09T09:12:53;4.30;;;1.43;;
2972;SDS011;1496;51.404;7.232;2023-01-09T09:15:21;4.77;;;1.30;;
2972;SDS011;1496;51.404;7.232;2023-01-09T09:17:51;5.80;;;2.27;;
2972;SDS011;1496;51.404;7.232;2023-01-09T09:20:20;8.93;;;1.73;;
2972;SDS011;1496;51.404;7.232;2023-01-09T09:23:04;3.90;;;1.47;;
2972;SDS011;1496;51.404;7.232;2023-01-09T09:25:32;4.60;;;1.50;;
2972;SDS011;1496;51.404;7.232;2023-01-09T09:27:59;5.40;;;1.10;;
2972;SDS011;1496;51.404;7.232;2023-01-09T09:30:26;5.93;;;1.57;;
2972;SDS011;1496;51.404;7.232;2023-01-09T09:32:53;6.63;;;1.73;;
2972;SDS011;1496;51.404;7.232;2023-01-09T09:35:20;9.40;;;1.67;;
2972;SDS011;1496;51.404;7.232;2023-01-09T09:37:53;3.30;;;1.30;;
2972;SDS011;1496;51.404;7.232;2023-01-09T09:43:06;7.43;;;2.60;;
2972;SDS011;1496;51.404;7.232;2023-01-09T09:46:11;4.53;;;1.57;;
2972;SDS011;1496;51.404;7.232;2023-01-09T09:48:56;8.33;;;1.90;;
2972;SDS011;1496;51.404;7.232;2023-01-09T09:54:31;3.87;;;1.50;;
2972;SDS011;1496;51.404;7.232;2023-01-09T09:57:01;2.77;;;1.23;;
2972;SDS011;1496;51.404;7.232;2023-01-09T09:59:30;3.40;;;1.90;;
2972;SDS011;1496;51.404;7.232;2023-01-09T10:04:47;7.83;;;1.80;;
2972;SDS011;1496;51.404;7.232;2023-01-09T10:07:23;2.50;;;1.37;;
2972;SDS011;1496;51.404;7.232;2023-01-09T10:10:00;4.33;;;2.03;;
2972;SDS011;1496;51.404;7.232;2023-01-09T10:12:35;6.23;;;2.80;;
2972;SDS011;1496;51.404;7.232;2023-01-09T10:20:59;4.07;;;1.60;;
2972;SDS011;1496;51.404;7.232;2023-01-09T10:23:52;3.47;;;1.63;;
2972;SDS011;1496;51.404;7.232;2023-01-09T10:26:26;5.00;;;2.20;;
2972;SDS011;1496;51.404;7.232;2023-01-09T10:34:44;4.80;;;1.90;;
2972;SDS011;1496;51.404;7.232;2023-01-09T10:37:45;8.40;;;2.10;;
2972;SDS011;1496;51.404;7.232;2023-01-09T10:40:25;3.43;;;1.57;;
2972;SDS011;1496;51.404;7.232;2023-01-09T10:43:01;4.00;;;1.60;;
2972;SDS011;1496;51.404;7.232;2023-01-09T10:45:49;5.37;;;1.73;;
2972;SDS011;1496;51.404;7.232;2023-01-09T10:48:20;2.33;;;1.40;;
2972;SDS011;1496;51.404;7.232;2023-01-09T10:50:50;6.50;;;1.77;;
2972;SDS011;1496;51.404;7.232;2023-01-09T10:53:22;5.90;;;1.83;;
2972;SDS011;1496;51.404;7.232;2023-01-09T10:55:55;6.70;;;1.60;;
2972;SDS011;1496;51.404;7.232;2023-01-09T10:58:37;5.43;;;1.50;;
2972;SDS011;1496;51.404;7.232;2023-01-09T11:01:05;4.90;;;1.90;;
2972;SDS011;1496;51.404;7.232;2023-01-09T11:03:34;2.73;;;1.60;;
2972;SDS011;1496;51.404;7.232;2023-01-09T11:06:02;3.63;;;1.90;;
2972;SDS011;1496;51.404;7.232;2023-01-09T11:08:40;2.30;;;1.00;;
2972;SDS011;1496;51.404;7.232;2023-01-09T11:11:10;5.23;;;1.30;;
2972;SDS011;1496;51.404;7.232;2023-01-09T11:13:38;4.80;;;1.10;;
2972;SDS011;1496;51.404;7.232;2023-01-09T11:16:18;4.07;;;1.27;;
2972;SDS011;1496;51.404;7.232;2023-01-09T11:18:47;10.00;;;1.50;;
2972;SDS011;1496;51.404;7.232;2023-01-09T11:21:38;6.20;;;1.40;;
2972;SDS011;1496;51.404;7.232;2023-01-09T11:26:47;3.90;;;1.30;;
2972;SDS011;1496;51.404;7.232;2023-01-09T11:29:19;4.03;;;1.37;;
2972;SDS011;1496;51.404;7.232;2023-01-09T11:31:51;3.30;;;1.30;;
2972;SDS011;1496;51.404;7.232;2023-01-09T11:34:20;6.77;;;1.60;;
2972;SDS011;1496;51.404;7.232;2023-01-09T11:36:49;4.60;;;1.80;;
2972;SDS011;1496;51.404;7.232;2023-01-09T11:41:54;3.10;;;1.27;;
2972;SDS011;1496;51.404;7.232;2023-01-09T11:44:26;3.60;;;1.37;;
2972;SDS011;1496;51.404;7.232;2023-01-09T11:46:56;5.13;;;1.40;;
2972;SDS011;1496;51.404;7.232;2023-01-09T11:49:24;3.87;;;1.50;;
2972;SDS011;1496;51.404;7.232;2023-01-09T11:54:51;4.90;;;1.90;;
2972;SDS011;1496;51.404;7.232;2023-01-09T11:57:21;3.00;;;1.30;;
2972;SDS011;1496;51.404;7.232;2023-01-09T11:59:49;4.73;;;1.30;;
2972;SDS011;1496;51.404;7.232;2023-01-09T12:05:29;4.20;;;1.27;;
2972;SDS011;1496;51.404;7.232;2023-01-09T12:13:46;5.40;;;1.47;;
2972;SDS011;1496;51.404;7.232;2023-01-09T12:28:00;2.87;;;1.30;;
2972;SDS011;1496;51.404;7.232;2023-01-09T12:33:54;3.73;;;1.20;;
2972;SDS011;1496;51.404;7.232;2023-01-09T12:39:37;4.83;;;1.10;;
2972;SDS011;1496;51.404;7.232;2023-01-09T12:54:02;4.53;;;1.60;;
2972;SDS011;1496;51.404;7.232;2023-01-09T12:56:31;2.00;;;1.10;;
2972;SDS011;1496;51.404;7.232;2023-01-09T12:59:22;3.73;;;1.60;;
2972;SDS011;1496;51.404;7.232;2023-01-09T13:04:44;4.70;;;1.37;;
2972;SDS011;1496;51.404;7.232;2023-01-09T13:07:17;2.00;;;1.27;;
2972;SDS011;1496;51.404;7.232;2023-01-09T13:12:52;5.90;;;1.50;;
2972;SDS011;1496;51.404;7.232;2023-01-09T13:15:25;3.23;;;1.30;;
2972;SDS011;1496;51.404;7.232;2023-01-09T13:17:54;2.63;;;1.90;;
2972;SDS011;1496;51.404;7.232;2023-01-09T13:20:43;5.60;;;1.70;;
2972;SDS011;1496;51.404;7.232;2023-01-09T13:23:26;3.10;;;1.80;;
2972;SDS011;1496;51.404;7.232;2023-01-09T13:26:04;5.10;;;1.13;;
2972;SDS011;1496;51.404;7.232;2023-01-09T13:28:45;6.77;;;2.00;;
2972;SDS011;1496;51.404;7.232;2023-01-09T13:33:54;5.57;;;1.70;;
2972;SDS011;1496;51.404;7.232;2023-01-09T13:36:30;7.87;;;1.70;;
2972;SDS011;1496;51.404;7.232;2023-01-09T13:39:01;4.50;;;1.33;;
2972;SDS011;1496;51.404;7.232;2023-01-09T13:41:28;6.00;;;1.67;;
2972;SDS011;1496;51.404;7.232;2023-01-09T13:46:54;4.73;;;1.90;;
2972;SDS011;1496;51.404;7.232;2023-01-09T13:57:29;9.80;;;2.90;;
2972;SDS011;1496;51.404;7.232;2023-01-09T14:03:04;2.63;;;1.53;;
2972;SDS011;1496;51.404;7.232;2023-01-09T14:08:12;2.23;;;1.67;;
2972;SDS011;1496;51.404;7.232;2023-01-09T14:10:48;5.00;;;1.70;;
2972;SDS011;1496;51.404;7.232;2023-01-09T14:13:21;3.87;;;2.00;;
2972;SDS011;1496;51.404;7.232;2023-01-09T14:15:51;5.13;;;1.80;;
2972;SDS011;1496;51.404;7.232;2023-01-09T14:18:34;4.03;;;1.87;;
2972;SDS011;1496;51.404;7.232;2023-01-09T14:21:11;6.87;;;1.47;;
2972;SDS011;1496;51.404;7.232;2023-01-09T14:23:44;8.27;;;1.80;;
2972;SDS011;1496;51.404;7.232;2023-01-09T14:26:16;4.53;;;2.10;;
2972;SDS011;1496;51.404;7.232;2023-01-09T14:28:48;3.40;;;1.90;;
2972;SDS011;1496;51.404;7.232;2023-01-09T14:31:26;6.33;;;2.87;;
2972;SDS011;1496;51.404;7.232;2023-01-09T14:36:51;5.73;;;1.93;;
2972;SDS011;1496;51.404;7.232;2023-01-09T14:39:23;4.73;;;2.47;;
2972;SDS011;1496;51.404;7.232;2023-01-09T14:41:51;8.70;;;1.87;;
2972;SDS011;1496;51.404;7.232;2023-01-09T14:44:50;6.63;;;2.23;;
2972;SDS011;1496;51.404;7.232;2023-01-09T14:50:05;7.47;;;2.73;;
2972;SDS011;1496;51.404;7.232;2023-01-09T14:52:52;6.03;;;2.70;;
2972;SDS011;1496;51.404;7.232;2023-01-09T14:55:46;4.80;;;2.57;;
2972;SDS011;1496;51.404;7.232;2023-01-09T15:03:35;5.23;;;1.90;;
2972;SDS011;1496;51.404;7.232;2023-01-09T15:06:24;4.50;;;1.80;;
2972;SDS011;1496;51.404;7.232;2023-01-09T15:11:27;7.50;;;2.37;;
2972;SDS011;1496;51.404;7.232;2023-01-09T15:13:56;13.17;;;2.70;;
2972;SDS011;1496;51.404;7.232;2023-01-09T15:16:27;6.90;;;2.50;;
2972;SDS011;1496;51.404;7.232;2023-01-09T15:19:05;5.63;;;2.33;;
2972;SDS011;1496;51.404;7.232;2023-01-09T15:21:33;4.20;;;2.00;;
2972;SDS011;1496;51.404;7.232;2023-01-09T15:26:53;3.10;;;2.17;;
2972;SDS011;1496;51.404;7.232;2023-01-09T15:29:25;5.40;;;2.10;;
2972;SDS011;1496;51.404;7.232;2023-01-09T15:32:00;4.87;;;2.10;;
2972;SDS011;1496;51.404;7.232;2023-01-09T15:34:34;5.77;;;2.57;;
2972;SDS011;1496;51.404;7.232;2023-01-09T15:37:01;4.50;;;1.90;;
2972;SDS011;1496;51.404;7.232;2023-01-09T15:39:34;6.40;;;2.60;;
2972;SDS011;1496;51.404;7.232;2023-01-09T15:42:03;11.63;;;2.87;;
2972;SDS011;1496;51.404;7.232;2023-01-09T15:44:58;6.53;;;2.80;;
2972;SDS011;1496;51.404;7.232;2023-01-09T15:47:30;6.80;;;2.60;;
2972;SDS011;1496;51.404;7.232;2023-01-09T15:50:04;7.77;;;2.93;;
2972;SDS011;1496;51.404;7.232;2023-01-09T15:52:31;4.70;;;2.80;;
2972;SDS011;1496;51.404;7.232;2023-01-09T15:54:58;5.20;;;2.77;;
2972;SDS011;1496;51.404;7.232;2023-01-09T16:00:43;8.07;;;3.30;;
2972;SDS011;1496;51.404;7.232;2023-01-09T16:02:57;4.17;;;2.73;;
2972;SDS011;1496;51.404;7.232;2023-01-09T16:05:39;6.37;;;3.33;;
2972;SDS011;1496;51.404;7.232;2023-01-09T16:11:08;7.47;;;3.00;;
2972;SDS011;1496;51.404;7.232;2023-01-09T16:13:46;6.97;;;3.83;;
2972;SDS011;1496;51.404;7.232;2023-01-09T16:16:13;4.90;;;3.17;;
2972;SDS011;1496;51.404;7.232;2023-01-09T16:18:51;5.77;;;2.90;;
2972;SDS011;1496;51.404;7.232;2023-01-09T16:21:23;6.97;;;3.20;;
2972;SDS011;1496;51.404;7.232;2023-01-09T16:24:01;9.10;;;3.40;;
2972;SDS011;1496;51.404;7.232;2023-01-09T16:26:34;9.13;;;4.00;;
2972;SDS011;1496;51.404;7.232;2023-01-09T16:31:59;9.10;;;3.80;;
2972;SDS011;1496;51.404;7.232;2023-01-09T16:34:28;6.97;;;3.80;;
2972;SDS011;1496;51.404;7.232;2023-01-09T16:36:57;5.67;;;3.93;;
2972;SDS011;1496;51.404;7.232;2023-01-09T16:39:25;9.60;;;3.90;;
2972;SDS011;1496;51.404;7.232;2023-01-09T16:41:56;5.83;;;3.63;;
2972;SDS011;1496;51.404;7.232;2023-01-09T16:44:45;6.60;;;3.80;;
2972;SDS011;1496;51.404;7.232;2023-01-09T16:47:15;6.17;;;3.90;;
2972;SDS011;1496;51.404;7.232;2023-01-09T16:49:41;8.03;;;3.83;;
2972;SDS011;1496;51.404;7.232;2023-01-09T16:52:25;7.60;;;4.60;;
2972;SDS011;1496;51.404;7.232;2023-01-09T16:54:54;9.90;;;4.70;;
2972;SDS011;1496;51.404;7.232;2023-01-09T16:57:20;10.20;;;4.87;;
2972;SDS011;1496;51.404;7.232;2023-01-09T16:59:48;5.73;;;4.50;;
2972;SDS011;1496;51.404;7.232;2023-01-09T17:02:17;5.97;;;5.27;;
2972;SDS011;1496;51.404;7.232;2023-01-09T17:04:46;6.20;;;5.03;;
2972;SDS011;1496;51.404;7.232;2023-01-09T17:07:12;8.10;;;4.37;;
2972;SDS011;1496;51.404;7.232;2023-01-09T17:09:41;6.50;;;5.03;;
2972;SDS011;1496;51.404;7.232;2023-01-09T17:12:19;8.33;;;5.40;;
2972;SDS011;1496;51.404;7.232;2023-01-09T17:14:52;8.40;;;5.30;;
2972;SDS011;1496;51.404;7.232;2023-01-09T17:17:19;9.77;;;6.10;;
2972;SDS011;1496;51.404;7.232;2023-01-09T17:19:46;9.00;;;6.80;;
2972;SDS011;1496;51.404;7.232;2023-01-09T17:22:12;17.23;;;6.90;;
2972;SDS011;1496;51.404;7.232;2023-01-09T17:24:40;9.13;;;5.93;;
2972;SDS011;1496;51.404;7.232;2023-01-09T17:27:32;9.70;;;6.60;;
2972;SDS011;1496;51.404;7.232;2023-01-09T17:30:20;10.00;;;7.20;;
2972;SDS011;1496;51.404;7.232;2023-01-09T17:32:47;12.70;;;6.27;;
2972;SDS011;1496;51.404;7.232;2023-01-09T17:35:14;11.60;;;5.53;;
2972;SDS011;1496;51.404;7.232;2023-01-09T17:37:44;7.10;;;5.83;;
2972;SDS011;1496;51.404;7.232;2023-01-09T17:40:13;10.03;;;6.93;;
2972;SDS011;1496;51.404;7.232;2023-01-09T17:42:48;7.53;;;6.73;;
2972;SDS011;1496;51.404;7.232;2023-01-09T17:45:15;10.23;;;5.80;;
2972;SDS011;1496;51.404;7.232;2023-01-09T17:47:41;13.03;;;6.03;;
2972;SDS011;1496;51.404;7.232;2023-01-09T17:50:18;16.93;;;7.10;;
2972;SDS011;1496;51.404;7.232;2023-01-09T17:52:46;8.63;;;5.37;;
2972;SDS011;1496;51.404;7.232;2023-01-09T17:55:16;8.43;;;5.30;;
2972;SDS011;1496;51.404;7.232;2023-01-09T17:57:44;7.47;;;4.10;;
2972;SDS011;1496;51.404;7.232;2023-01-09T18:00:32;4.30;;;3.30;;